Time;durP1;ratioP1;P1;durP2;ratioP2;P2;SDS_P1;SDS_P2;PMS_P1;PMS_P2;Temp;Humidity;BMP_temperature;BMP_pressure;BME280_temperature;BME280_humidity;BME280_pressure;Samples;Min_cycle;Max_cycle;Signal;HPM_P1;HPM_P2
2022/08/25 00:00:10;;;;;;;2.40;1.10;;;13.60;1.40;;;15.28;100.00;95536.45;646554;216;31478;-72
2022/08/25 00:05:26;;;;;;;0.75;0.75;;;13.50;1.40;;;15.18;100.00;95522.80;644531;216;31580;-70
2022/08/25 00:08:07;;;;;;;0.80;0.80;;;13.50;1.40;;;15.14;100.00;95523.39;619531;222;31817;-69
2022/08/25 00:10:49;;;;;;;0.60;0.57;;;13.40;1.40;;;15.11;100.00;95527.89;645923;216;31486;-70
2022/08/25 00:13:31;;;;;;;1.60;1.25;;;13.30;1.40;;;15.07;100.00;95523.20;647828;216;31662;-70
2022/08/25 00:16:13;;;;;;;13.45;0.88;;;13.40;1.40;;;15.09;100.00;95519.17;612721;226;32193;-70
2022/08/25 00:18:57;;;;;;;1.12;0.93;;;13.40;1.40;;;15.07;100.00;95520.45;645784;215;31811;-70
2022/08/25 00:21:39;;;;;;;0.50;0.50;;;13.40;1.40;;;15.09;100.00;95519.92;619189;226;31789;-69
2022/08/25 00:24:20;;;;;;;0.60;0.50;;;13.30;1.40;;;14.98;100.00;95521.84;646904;216;31475;-70
2022/08/25 00:27:04;;;;;;;1.00;0.90;;;13.30;1.40;;;14.89;100.00;95529.45;646409;212;31641;-70
2022/08/25 00:29:45;;;;;;;1.27;0.55;;;13.20;1.40;;;14.89;100.00;95518.30;646950;212;32396;-72
2022/08/25 00:32:27;;;;;;;0.75;0.73;;;13.20;1.40;;;14.86;100.00;95516.98;645750;216;31514;-70
2022/08/25 00:35:55;;;;;;;1.20;0.90;;;13.20;1.40;;;14.78;100.00;95516.66;645273;212;31589;-70
2022/08/25 00:38:39;;;;;;;1.40;0.90;;;13.10;1.40;;;14.75;100.00;95518.38;647065;216;42703;-70
2022/08/25 00:41:20;;;;;;;1.67;1.57;;;13.00;1.40;;;14.75;100.00;95514.16;647312;212;33521;-72
2022/08/25 00:44:03;;;;;;;1.30;1.20;;;13.00;1.40;;;14.80;100.00;95516.61;646578;216;31522;-70
2022/08/25 00:46:48;;;;;;;2.20;0.80;;;13.10;1.40;;;14.76;100.00;95510.97;645863;216;31972;-70
2022/08/25 00:49:39;;;;;;;0.40;0.30;;;13.10;1.40;;;14.74;100.00;95506.64;645807;216;31900;-72
2022/08/25 00:52:25;;;;;;;1.65;0.80;;;13.10;1.40;;;14.82;100.00;95509.39;618983;226;31856;-70
2022/08/25 00:55:15;;;;;;;1.10;0.70;;;13.30;1.40;;;14.81;100.00;95503.73;619459;225;31901;-70
2022/08/25 00:57:57;;;;;;;0.70;0.60;;;13.20;1.40;;;14.83;100.00;95501.14;646015;212;32385;-70
2022/08/25 01:00:38;;;;;;;1.37;0.70;;;13.20;1.40;;;14.91;100.00;95502.28;647006;216;31493;-70
2022/08/25 01:03:20;;;;;;;0.80;0.80;;;13.20;1.40;;;14.86;100.00;95501.52;646117;212;31522;-71
2022/08/25 01:06:05;;;;;;;1.05;0.75;;;13.20;1.40;;;14.84;100.00;95497.77;644737;215;31490;-70
2022/08/25 01:08:47;;;;;;;0.70;0.70;;;13.20;1.40;;;14.79;100.00;95497.20;647209;216;31483;-72
2022/08/25 01:14:06;;;;;;;3.53;1.00;;;13.00;1.40;;;14.75;100.00;95499.82;645038;216;31594;-70
2022/08/25 01:16:47;;;;;;;1.62;1.30;;;13.00;1.40;;;14.70;100.00;95495.73;635883;216;31719;-70
2022/08/25 01:19:31;;;;;;;0.70;0.60;;;13.00;1.40;;;14.69;100.00;95490.80;644739;216;31574;-70
2022/08/25 01:22:11;;;;;;;1.67;1.37;;;13.00;1.40;;;14.65;100.00;95493.28;647215;216;33016;-70
2022/08/25 01:24:56;;;;;;;0.70;0.70;;;12.90;1.40;;;14.66;100.00;95496.99;647354;214;31501;-69
2022/08/25 01:27:38;;;;;;;1.70;1.30;;;12.90;1.40;;;14.71;100.00;95495.66;646033;216;32473;-70
2022/08/25 01:30:23;;;;;;;2.05;1.90;;;13.10;1.40;;;14.70;100.00;95495.85;647957;212;43290;-70
2022/08/25 01:35:51;;;;;;;0.70;0.60;;;13.00;1.40;;;14.58;100.00;95492.11;644522;215;31572;-70
2022/08/25 01:38:33;;;;;;;0.50;0.50;;;13.00;1.40;;;14.44;100.00;95489.92;645812;216;31481;-72
2022/08/25 01:41:15;;;;;;;0.80;0.70;;;12.80;1.40;;;14.41;100.00;95491.38;619213;226;32453;-70
2022/08/25 01:43:56;;;;;;;2.60;1.00;;;12.80;1.40;;;14.36;100.00;95490.05;618657;226;31984;-70
2022/08/25 01:46:38;;;;;;;5.90;1.48;;;12.80;1.40;;;14.33;100.00;95488.27;646444;212;31535;-69
2022/08/25 01:49:20;;;;;;;1.90;1.60;;;12.80;1.40;;;14.35;100.00;95487.93;646631;212;31578;-69
2022/08/25 01:52:14;;;;;;;2.40;1.12;;;12.70;1.40;;;14.29;100.00;95487.67;645551;212;42138;-69
2022/08/25 01:54:56;;;;;;;0.90;0.80;;;12.70;1.40;;;14.26;100.00;95489.33;646595;216;31487;-70
2022/08/25 01:57:38;;;;;;;1.02;1.02;;;12.60;1.40;;;14.19;100.00;95487.45;645950;216;42332;-69
2022/08/25 02:00:20;;;;;;;1.42;0.80;;;12.60;1.40;;;14.22;100.00;95483.69;646291;216;42537;-70
2022/08/25 02:03:01;;;;;;;2.60;1.20;;;12.50;1.40;;;14.18;100.00;95481.95;645813;216;31514;-73
2022/08/25 02:05:43;;;;;;;1.67;1.17;;;12.40;1.40;;;14.13;100.00;95482.35;645434;216;42174;-71
2022/08/25 02:08:25;;;;;;;1.20;1.10;;;12.50;1.40;;;14.14;100.00;95480.80;645676;212;42722;-70
2022/08/25 02:11:07;;;;;;;30.25;1.85;;;12.40;1.40;;;14.14;100.00;95483.70;646842;216;31555;-71
2022/08/25 02:13:48;;;;;;;1.80;1.10;;;12.40;1.40;;;14.04;100.00;95480.68;647216;216;42150;-71
2022/08/25 02:16:35;;;;;;;0.52;0.50;;;12.40;1.40;;;14.01;100.00;95482.80;636644;216;31718;-70
2022/08/25 02:19:17;;;;;;;0.73;0.70;;;12.30;1.40;;;13.97;100.00;95479.48;646386;216;31581;-70
2022/08/25 02:22:01;;;;;;;3.10;1.45;;;12.30;1.40;;;13.92;100.00;95483.53;646750;212;42124;-70
2022/08/25 02:24:43;;;;;;;1.90;0.90;;;12.20;1.40;;;13.89;100.00;95487.72;647817;216;42282;-70
2022/08/25 02:27:28;;;;;;;1.70;0.80;;;12.20;1.40;;;13.91;100.00;95485.23;646822;212;42545;-71
2022/08/25 02:30:12;;;;;;;1.23;0.93;;;12.20;1.40;;;13.94;100.00;95476.48;646404;216;42110;-71
2022/08/25 02:32:54;;;;;;;2.17;0.95;;;12.20;1.40;;;13.91;100.00;95476.48;646704;212;42144;-70
2022/08/25 02:35:51;;;;;;;1.37;1.05;;;12.30;1.40;;;13.85;100.00;95477.27;645705;216;42720;-70
2022/08/25 02:38:33;;;;;;;2.40;0.70;;;12.20;1.40;;;13.87;100.00;95481.02;645326;216;31549;-70
2022/08/25 02:41:18;;;;;;;0.82;0.82;;;12.30;1.40;;;13.94;100.00;95482.14;646421;212;36477;-70
2022/08/25 02:44:00;;;;;;;1.40;0.90;;;12.30;1.40;;;13.94;100.00;95481.93;647211;216;31498;-69
2022/08/25 02:46:41;;;;;;;1.30;1.20;;;12.30;1.40;;;13.94;100.00;95476.20;645903;212;31534;-70
2022/08/25 02:49:25;;;;;;;1.25;1.15;;;12.30;1.40;;;13.89;100.00;95476.97;619850;226;42485;-70
2022/08/25 02:52:07;;;;;;;1.58;1.30;;;12.20;1.40;;;13.89;100.00;95470.27;646249;216;39837;-69
2022/08/25 02:54:51;;;;;;;0.70;0.70;;;12.20;1.40;;;13.87;100.00;95467.17;645917;212;31559;-70
2022/08/25 02:57:33;;;;;;;0.90;0.85;;;12.20;1.40;;;13.79;100.00;95464.52;646085;212;34165;-70
2022/08/25 03:00:18;;;;;;;1.92;1.58;;;12.10;1.40;;;13.68;100.00;95461.20;620172;226;32007;-71
2022/08/25 03:05:36;;;;;;;2.50;0.50;;;11.90;1.40;;;13.43;100.00;95464.19;646832;216;41932;-71
2022/08/25 03:08:18;;;;;;;3.20;1.27;;;11.80;1.40;;;13.40;100.00;95472.03;644069;216;31576;-69
2022/08/25 03:11:00;;;;;;;1.08;1.08;;;11.70;1.40;;;13.31;100.00;95473.63;648144;216;42136;-70
2022/08/25 03:13:42;;;;;;;1.77;1.15;;;11.60;1.40;;;13.36;100.00;95465.38;646224;216;31564;-70
2022/08/25 03:16:23;;;;;;;1.15;1.05;;;11.60;1.40;;;13.34;100.00;95463.03;638139;216;42284;-70
2022/08/25 03:20:58;;;;;;;0.90;0.90;;;11.70;1.40;;;13.29;100.00;95466.63;647256;216;31511;-70
2022/08/25 03:23:39;;;;;;;0.65;0.65;;;11.60;1.40;;;13.23;100.00;95463.56;645507;212;38495;-70
2022/08/25 03:29:12;;;;;;;1.30;1.20;;;11.50;1.40;;;13.14;100.00;95463.56;620440;226;42671;-70
2022/08/25 03:31:53;;;;;;;1.40;1.30;;;11.50;1.40;;;13.16;100.00;95462.84;647506;216;36481;-70
2022/08/25 03:35:51;;;;;;;0.73;0.73;;;11.50;1.40;;;13.03;100.00;95460.95;647458;216;31589;-70
2022/08/25 03:38:32;;;;;;;1.25;0.90;;;11.40;1.40;;;13.09;100.00;95460.06;646726;216;32174;-70
2022/08/25 03:41:15;;;;;;;0.57;0.57;;;11.40;1.40;;;13.07;100.00;95461.68;645868;216;42698;-72
2022/08/25 03:43:59;;;;;;;0.47;0.47;;;11.40;1.40;;;12.99;100.00;95460.30;647462;213;31562;-69
2022/08/25 03:49:17;;;;;;;0.80;0.70;;;11.50;1.40;;;12.96;100.00;95451.63;618997;226;32445;-70
2022/08/25 03:51:58;;;;;;;1.10;1.00;;;11.50;1.40;;;12.98;100.00;95456.57;648130;216;31526;-69
2022/08/25 03:54:40;;;;;;;2.20;0.80;;;11.40;1.40;;;12.99;100.00;95455.94;645610;216;39160;-70
2022/08/25 03:57:22;;;;;;;1.20;1.10;;;11.40;1.40;;;13.08;100.00;95460.44;647030;213;31627;-69
2022/08/25 04:02:42;;;;;;;0.40;0.40;;;11.50;1.40;;;13.08;100.00;95459.46;646812;213;31545;-71
2022/08/25 04:05:24;;;;;;;1.70;1.27;;;11.50;1.40;;;13.08;100.00;95460.88;646283;216;31954;-70
2022/08/25 04:08:06;;;;;;;0.98;0.98;;;11.50;1.40;;;13.08;100.00;95454.67;646201;216;31574;-70
2022/08/25 04:10:47;;;;;;;1.70;1.20;;;11.50;1.40;;;13.10;100.00;95455.19;646514;216;33982;-70
2022/08/25 04:13:29;;;;;;;1.48;1.30;;;11.60;1.40;;;13.15;100.00;95456.89;647580;216;31482;-70
2022/08/25 04:16:11;;;;;;;1.27;1.23;;;11.60;1.40;;;13.18;100.00;95460.09;639162;212;32505;-70
2022/08/25 04:18:52;;;;;;;2.00;1.27;;;11.60;1.40;;;13.17;100.00;95457.75;646421;212;31616;-70
2022/08/25 04:21:34;;;;;;;3.30;1.10;;;11.70;1.40;;;13.15;100.00;95454.44;619232;225;42485;-70
2022/08/25 04:24:16;;;;;;;0.80;0.80;;;11.60;1.40;;;13.17;100.00;95454.97;647924;216;31618;-70
2022/08/25 04:26:57;;;;;;;1.62;1.30;;;11.60;1.40;;;13.16;100.00;95452.13;619381;222;31858;-70
2022/08/25 04:29:39;;;;;;;17.00;1.85;;;11.70;1.40;;;13.20;100.00;95456.98;646793;216;31569;-70
2022/08/25 04:32:21;;;;;;;2.47;2.25;;;11.70;1.40;;;13.25;100.00;95460.95;646437;216;39526;-70
2022/08/25 04:35:51;;;;;;;1.52;1.02;;;11.60;1.40;;;13.27;100.00;95462.88;631608;221;42378;-70
2022/08/25 04:38:33;;;;;;;3.05;1.23;;;11.70;1.40;;;13.31;100.00;95459.66;646144;212;31530;-70
2022/08/25 04:41:15;;;;;;;1.80;1.42;;;11.70;1.40;;;13.41;100.00;95457.52;646595;216;37125;-70
2022/08/25 04:43:56;;;;;;;3.33;1.30;;;11.90;1.40;;;13.46;100.00;95455.54;647223;216;32104;-70
2022/08/25 04:46:38;;;;;;;6.50;2.50;;;11.90;1.40;;;13.47;100.00;95459.73;647198;216;42157;-70
2022/08/25 04:49:22;;;;;;;8.98;4.65;;;11.90;1.40;;;13.49;100.00;95449.06;645258;216;42680;-70
2022/08/25 04:52:05;;;;;;;5.95;3.58;;;11.90;1.40;;;13.52;100.00;95447.61;645627;216;31564;-70
2022/08/25 04:54:46;;;;;;;11.63;6.68;;;12.00;1.40;;;13.51;100.00;95452.49;647486;212;31684;-70
2022/08/25 04:57:31;;;;;;;9.35;5.10;;;12.00;1.40;;;13.54;100.00;95453.14;645236;216;32614;-70
2022/08/25 05:00:15;;;;;;;4.82;3.58;;;11.90;1.40;;;13.52;100.00;95450.48;646366;216;39826;-71
2022/08/25 05:02:56;;;;;;;3.25;2.85;;;11.80;1.40;;;13.61;100.00;95449.91;647531;212;31567;-70
2022/08/25 05:05:39;;;;;;;2.95;2.05;;;11.80;1.40;;;13.55;100.00;95448.44;646595;216;41354;-70
2022/08/25 05:08:20;;;;;;;1.98;1.77;;;11.80;1.40;;;13.54;100.00;95450.48;645837;216;42170;-69
2022/08/25 05:11:05;;;;;;;2.30;1.50;;;11.90;1.40;;;13.64;100.00;95453.60;646865;216;33993;-70
2022/08/25 05:13:47;;;;;;;2.80;2.47;;;11.90;1.40;;;13.71;100.00;95452.02;645206;216;42193;-70
2022/08/25 05:16:31;;;;;;;1.80;1.70;;;12.00;1.40;;;13.80;100.00;95453.74;638086;216;40242;-70
2022/08/25 05:19:15;;;;;;;1.52;1.35;;;12.10;1.40;;;13.86;100.00;95449.94;648110;216;42406;-70
2022/08/25 05:21:56;;;;;;;1.73;1.52;;;12.20;1.40;;;13.93;100.00;95448.34;647023;216;42191;-70
2022/08/25 05:24:39;;;;;;;2.20;1.37;;;12.30;1.40;;;13.94;100.00;95449.50;646576;216;34941;-70
2022/08/25 05:27:21;;;;;;;6.53;2.00;;;12.30;1.40;;;14.03;100.00;95449.26;646116;216;31566;-70
2022/08/25 05:30:07;;;;;;;1.52;1.42;;;12.40;1.40;;;14.18;100.00;95456.71;645644;216;40011;-70
2022/08/25 05:32:49;;;;;;;1.60;1.50;;;12.50;1.40;;;14.18;100.00;95451.22;645733;216;31750;-69
2022/08/25 05:35:51;;;;;;;4.12;2.17;;;12.70;1.40;;;14.21;100.00;95451.20;646273;212;31592;-69
2022/08/25 05:38:33;;;;;;;2.10;2.00;;;12.80;1.40;;;14.38;100.00;95451.23;645858;216;42706;-70
2022/08/25 05:41:15;;;;;;;3.15;1.60;;;13.00;1.40;;;14.55;100.00;95455.46;646195;216;42173;-70
2022/08/25 05:43:57;;;;;;;2.80;1.50;;;13.10;1.40;;;14.71;100.00;95453.17;644939;216;42170;-71
2022/08/25 05:46:38;;;;;;;1.30;1.08;;;13.20;1.40;;;14.84;100.00;95448.22;647354;216;42736;-70
2022/08/25 05:49:20;;;;;;;1.50;0.82;;;13.40;1.40;;;14.96;100.00;95448.75;646345;212;31534;-70
2022/08/25 05:52:02;;;;;;;1.83;1.40;;;13.60;1.40;;;15.12;100.00;95449.41;618904;226;42735;-68
2022/08/25 05:54:44;;;;;;;1.67;1.58;;;13.70;1.40;;;15.33;100.00;95448.59;646061;216;31810;-69
2022/08/25 05:57:26;;;;;;;1.40;1.17;;;13.90;1.40;;;15.48;100.00;95446.06;646534;216;31609;-69
2022/08/25 06:00:09;;;;;;;1.80;1.50;;;14.00;1.40;;;15.65;100.00;95444.77;646071;212;31512;-68
2022/08/25 06:02:51;;;;;;;1.62;1.52;;;14.20;1.40;;;15.81;100.00;95444.33;646785;216;31559;-69
2022/08/25 06:05:33;;;;;;;6.18;2.00;;;14.30;1.40;;;15.99;100.00;95448.54;645245;216;31595;-68
2022/08/25 06:10:51;;;;;;;2.10;1.60;;;14.70;1.40;;;16.31;100.00;95443.80;645304;216;32656;-69
2022/08/25 06:13:33;;;;;;;3.00;1.85;;;14.80;1.40;;;16.53;100.00;95440.04;645069;216;31547;-69
2022/08/25 06:16:15;;;;;;;2.20;2.00;;;15.00;1.40;;;16.69;100.00;95434.64;639035;212;32063;-69
2022/08/25 06:18:57;;;;;;;1.45;1.35;;;15.10;1.40;;;16.79;100.00;95431.80;646525;216;31552;-69
2022/08/25 06:21:39;;;;;;;1.77;1.48;;;15.30;1.40;;;16.97;100.00;95431.45;647285;212;32258;-69
2022/08/25 06:24:24;;;;;;;2.08;1.62;;;15.40;1.40;;;17.10;100.00;95431.86;646557;216;31798;-69
2022/08/25 06:27:05;;;;;;;2.05;1.67;;;15.50;1.40;;;17.27;100.00;95428.17;646689;216;31594;-70
2022/08/25 06:29:48;;;;;;;4.05;2.80;;;15.70;1.40;;;17.47;100.00;95427.39;644834;212;31582;-69
2022/08/25 06:32:31;;;;;;;4.30;3.60;;;16.10;1.40;;;17.65;100.00;95432.44;646547;216;31542;-70
2022/08/25 06:35:51;;;;;;;3.33;1.77;;;16.20;1.40;;;17.77;100.00;95431.75;647276;216;31623;-69
2022/08/25 06:38:32;;;;;;;3.53;2.50;;;16.60;1.40;;;17.95;100.00;95432.34;646911;216;32074;-69
2022/08/25 06:41:15;;;;;;;4.40;2.75;;;16.60;1.40;;;18.14;100.00;95433.61;645681;212;31576;-69
2022/08/25 06:43:56;;;;;;;3.85;1.85;;;16.70;1.40;;;18.18;100.00;95437.56;646666;216;31614;-70
2022/08/25 06:46:38;;;;;;;4.72;1.92;;;16.60;1.40;;;18.24;100.00;95435.71;645859;216;31500;-70
2022/08/25 06:49:20;;;;;;;5.12;2.53;;;16.80;1.40;;;18.49;100.00;95436.77;645717;216;31561;-70
2022/08/25 06:52:01;;;;;;;3.65;1.83;;;17.00;1.40;;;18.72;100.00;95433.20;646465;216;31569;-69
2022/08/25 06:54:46;;;;;;;3.15;2.40;;;17.30;1.40;;;18.72;100.00;95435.72;645874;212;32041;-69
2022/08/25 06:57:28;;;;;;;3.90;2.87;;;17.40;1.40;;;18.78;100.00;95435.92;646517;216;31567;-70
2022/08/25 07:00:13;;;;;;;4.12;2.65;;;17.40;1.40;;;18.92;100.00;95432.16;646849;212;32057;-69
2022/08/25 07:02:55;;;;;;;3.05;2.37;;;17.50;1.40;;;19.05;100.00;95425.98;645761;216;31872;-70
2022/08/25 07:05:37;;;;;;;2.72;1.90;;;17.60;1.40;;;19.14;100.00;95429.47;646936;216;31583;-70
2022/08/25 07:10:54;;;;;;;2.53;2.03;;;18.00;1.40;;;19.55;100.00;95439.05;646185;216;31547;-69
2022/08/25 07:13:35;;;;;;;2.15;1.90;;;18.20;1.40;;;19.60;100.00;95445.09;647076;212;31636;-70
2022/08/25 07:16:17;;;;;;;4.12;2.42;;;18.50;1.40;;;19.87;100.00;95440.94;637530;216;31735;-69
2022/08/25 07:18:59;;;;;;;4.53;2.50;;;18.50;1.40;;;20.05;100.00;95439.27;646136;216;32792;-69
2022/08/25 07:21:40;;;;;;;2.47;2.28;;;18.80;1.40;;;20.30;100.00;95435.30;620193;226;42659;-69
2022/08/25 07:24:22;;;;;;;4.20;1.80;;;19.10;1.40;;;20.55;100.00;95433.66;646896;216;42163;-69
2022/08/25 07:27:04;;;;;;;5.57;2.42;;;19.30;1.40;;;20.74;100.00;95433.30;645804;216;43100;-70
2022/08/25 07:32:23;;;;;;;4.05;2.10;;;19.40;1.40;;;20.95;100.00;95427.81;646746;216;31557;-69
2022/08/25 07:35:51;;;;;;;3.03;2.20;;;19.60;1.40;;;21.16;100.00;95425.73;647461;216;31713;-69
2022/08/25 07:38:33;;;;;;;2.72;2.10;;;19.60;1.40;;;21.31;100.00;95424.36;646894;216;31590;-70
2022/08/25 07:41:16;;;;;;;2.87;2.37;;;19.90;1.40;;;21.32;100.00;95425.14;644637;212;32232;-70
2022/08/25 07:43:59;;;;;;;3.78;2.53;;;20.10;1.40;;;21.58;100.00;95424.61;646693;216;31565;-69
2022/08/25 07:46:41;;;;;;;2.37;2.15;;;20.20;1.40;;;21.67;100.00;95428.61;646688;212;31595;-70
2022/08/25 07:49:22;;;;;;;3.42;2.70;;;20.20;1.40;;;21.86;100.00;95432.80;646251;216;31613;-70
2022/08/25 07:52:04;;;;;;;3.03;2.05;;;20.50;1.40;;;22.18;100.00;95426.67;647661;216;31576;-70
2022/08/25 07:54:47;;;;;;;2.30;2.10;;;20.80;1.40;;;22.30;100.00;95433.59;646426;216;31661;-70
2022/08/25 07:57:28;;;;;;;2.85;2.30;;;20.80;1.40;;;22.52;100.00;95434.81;646125;216;31902;-70
2022/08/25 08:00:11;;;;;;;2.75;1.80;;;21.10;1.40;;;22.58;100.00;95435.19;646021;216;31728;-70
2022/08/25 08:02:52;;;;;;;7.80;2.30;;;21.20;1.40;;;22.45;100.00;95432.65;645488;216;31543;-70
2022/08/25 08:05:37;;;;;;;2.53;1.90;;;21.30;1.40;;;22.57;100.00;95435.53;646583;212;32307;-70
2022/08/25 08:08:19;;;;;;;1.75;1.62;;;21.50;1.40;;;22.69;100.00;95441.67;619404;222;31993;-70
2022/08/25 08:11:01;;;;;;;2.92;2.50;;;21.50;1.40;;;23.00;100.00;95442.56;645567;216;42121;-70
2022/08/25 08:13:46;;;;;;;2.17;1.87;;;21.60;1.40;;;23.26;100.00;95440.05;646516;216;31625;-70
2022/08/25 08:16:28;;;;;;;3.47;2.20;;;22.00;1.40;;;23.16;100.00;95443.05;646824;212;31532;-70
2022/08/25 08:19:09;;;;;;;4.10;2.20;;;22.10;1.40;;;23.35;100.00;95439.22;645549;216;31814;-70
2022/08/25 08:21:51;;;;;;;3.42;2.17;;;22.10;1.40;;;23.04;100.00;95440.91;646890;212;33686;-70
2022/08/25 08:24:37;;;;;;;2.22;2.00;;;22.00;1.40;;;23.14;100.00;95437.28;646345;216;31832;-70
2022/08/25 08:27:17;;;;;;;3.80;1.95;;;22.10;1.40;;;23.42;100.00;95438.64;646627;212;31844;-69
2022/08/25 08:29:59;;;;;;;1.60;1.50;;;22.30;1.40;;;23.45;100.00;95436.13;646841;212;31726;-69
2022/08/25 08:32:40;;;;;;;2.30;2.10;;;22.40;1.40;;;23.34;100.00;95431.59;619459;226;32077;-70
2022/08/25 08:35:58;;;;;;;2.25;2.05;;;22.40;1.40;;;23.90;100.00;95423.61;646238;212;42168;-70
2022/08/25 08:38:40;;;;;;;3.35;2.58;;;22.90;1.40;;;24.17;100.00;95423.55;647303;213;32389;-69
2022/08/25 08:45:03;;;;;;;3.95;2.55;;;23.30;1.40;;;24.85;100.00;95420.69;647480;216;31666;-70
2022/08/25 08:47:49;;;;;;;2.87;2.35;;;23.60;1.40;;;24.57;100.00;95413.72;619422;226;31868;-70
2022/08/25 08:50:37;;;;;;;5.47;3.30;;;23.50;1.40;;;25.18;100.00;95411.57;645625;212;31535;-70
2022/08/25 08:53:35;;;;;;;2.33;1.85;;;24.00;1.40;;;25.35;100.00;95402.08;648489;216;42204;-70
2022/08/25 08:56:26;;;;;;;2.90;1.80;;;24.40;1.40;;;25.60;100.00;95402.08;619497;226;42553;-69
2022/08/25 08:59:19;;;;;;;1.98;1.60;;;24.60;1.40;;;25.87;100.00;95395.28;645733;216;31547;-70
2022/08/25 09:02:00;;;;;;;2.90;2.50;;;24.70;1.40;;;25.93;100.00;95396.04;619661;225;31835;-70
2022/08/25 09:04:47;;;;;;;2.97;1.98;;;25.10;1.40;;;27.37;95.30;95389.86;646271;216;43407;-70
2022/08/25 09:07:41;;;;;;;2.08;1.87;;;29.00;1.40;;;30.00;80.55;95390.93;647178;216;31704;-70
2022/08/25 09:10:23;;;;;;;2.30;1.80;;;31.80;1.40;;;31.10;72.06;95395.97;646044;216;31695;-71
2022/08/25 09:13:08;;;;;;;2.47;2.00;;;32.40;1.40;;;32.35;71.78;95393.77;646530;216;32166;-71
2022/08/25 09:19:13;;;;;;;2.37;2.17;;;31.90;1.40;;;31.62;68.83;95397.20;647375;216;42195;-71
2022/08/25 09:21:59;;;;;;;2.45;2.12;;;32.20;1.40;;;34.01;63.11;95394.71;645763;216;31716;-71
2022/08/25 09:24:53;;;;;;;2.67;2.47;;;32.80;1.40;;;32.66;62.66;95401.92;647003;216;31710;-70
2022/08/25 09:27:41;;;;;;;2.45;2.25;;;32.50;1.40;;;33.75;62.04;95393.12;646741;216;31671;-70
2022/08/25 09:30:22;;;;;;;2.70;2.50;;;33.20;1.40;;;36.22;56.12;95386.30;646680;212;33157;-71
2022/08/25 09:35:51;;;;;;;2.12;2.00;;;32.40;1.40;;;35.22;57.04;95389.70;646399;212;31630;-71
2022/08/25 09:38:32;;;;;;;2.78;2.10;;;33.10;1.40;;;36.92;50.44;95373.78;647113;216;31984;-71
2022/08/25 09:41:15;;;;;;;2.35;2.10;;;34.70;1.40;;;38.16;52.75;95372.17;646619;216;31699;-71
2022/08/25 09:43:57;;;;;;;2.05;1.85;;;35.80;1.40;;;38.65;49.22;95368.52;646779;212;32146;-70
2022/08/25 09:46:38;;;;;;;2.73;2.53;;;35.60;1.40;;;37.96;47.92;95364.42;647343;216;42196;-71
2022/08/25 09:49:20;;;;;;;2.40;2.20;;;35.90;1.40;;;31.76;55.77;95384.88;647259;216;31576;-71
2022/08/25 09:54:50;;;;;;;3.10;2.70;;;31.60;1.40;;;33.28;54.47;95368.98;642689;216;31589;-70
2022/08/25 09:57:37;;;;;;;2.60;2.40;;;32.30;1.40;;;33.57;57.54;95363.34;620381;226;43696;-70
2022/08/25 10:00:24;;;;;;;2.70;2.28;;;32.60;1.40;;;33.30;53.63;95367.84;617778;225;34535;-71
2022/08/25 10:03:11;;;;;;;2.20;2.00;;;31.70;1.40;;;36.07;48.44;95359.27;645861;216;31580;-71
2022/08/25 10:06:06;;;;;;;2.65;2.00;;;33.80;1.40;;;35.34;49.71;95358.11;647192;216;42241;-69
2022/08/25 10:11:38;;;;;;;2.83;2.60;;;34.40;1.40;;;39.12;47.00;95344.01;646512;216;31606;-72
2022/08/25 10:14:37;;;;;;;2.90;2.60;;;36.00;1.40;;;37.17;46.82;95350.80;618702;226;32160;-71
2022/08/25 10:17:23;;;;;;;2.30;2.10;;;35.00;1.40;;;35.65;51.42;95352.96;618150;225;31907;-72
2022/08/25 10:20:12;;;;;;;2.40;2.17;;;34.30;1.40;;;39.44;45.80;95344.20;646194;216;31624;-71
2022/08/25 10:22:54;;;;;;;3.10;2.40;;;36.30;1.40;;;38.76;44.70;95342.94;647646;212;31948;-71
2022/08/25 10:25:39;;;;;;;2.58;2.37;;;35.00;1.40;;;38.27;44.39;95338.28;646745;216;31600;-69
2022/08/25 10:28:24;;;;;;;2.60;2.30;;;34.80;1.40;;;35.19;50.82;95350.67;646795;215;31734;-70
2022/08/25 10:31:13;;;;;;;4.87;2.30;;;33.50;1.40;;;36.10;45.10;95345.05;617674;226;31916;-71
2022/08/25 10:35:57;;;;;;;2.62;2.40;;;33.50;1.40;;;34.34;49.58;95345.84;646506;216;31752;-71
2022/08/25 10:38:42;;;;;;;2.87;2.60;;;32.80;1.40;;;39.98;44.40;95327.89;646499;212;31652;-71
2022/08/25 10:41:37;;;;;;;3.50;3.20;;;36.10;1.40;;;35.67;45.56;95339.05;645031;216;31829;-71
2022/08/25 10:47:30;;;;;;;3.10;2.60;;;34.60;1.40;;;37.96;45.82;95330.39;646701;216;42518;-71
2022/08/25 10:50:28;;;;;;;3.53;2.60;;;34.90;1.40;;;35.88;47.48;95330.63;645789;216;31729;-73
2022/08/25 10:53:42;;;;;;;3.00;2.30;;;31.40;1.40;;;35.83;48.29;95323.00;646624;212;31580;-73
2022/08/25 10:56:40;;;;;;;3.10;2.80;;;30.20;1.40;;;33.45;52.61;95329.34;647370;216;31580;-72
2022/08/25 10:59:29;;;;;;;2.60;2.40;;;29.50;1.40;;;34.04;52.60;95324.75;619411;226;43134;-72
2022/08/25 11:02:32;;;;;;;2.50;2.30;;;30.00;1.40;;;34.23;51.61;95323.27;646458;216;31695;-72
2022/08/25 11:05:30;;;;;;;2.20;2.00;;;30.30;1.40;;;33.96;51.31;95322.41;646402;216;31682;-72
2022/08/25 11:08:35;;;;;;;2.72;2.50;;;30.40;1.40;;;32.18;56.50;95333.58;646738;216;31559;-72
2022/08/25 11:11:24;;;;;;;2.70;2.40;;;29.50;1.40;;;32.25;57.05;95321.67;647055;216;31607;-72
2022/08/25 11:14:22;;;;;;;2.37;2.17;;;29.80;1.40;;;31.66;59.47;95313.34;647972;216;31528;-72
2022/08/25 11:17:25;;;;;;;3.65;2.12;;;29.30;1.40;;;30.75;64.40;95319.32;635010;212;31758;-71
2022/08/25 11:20:12;;;;;;;3.03;2.45;;;29.20;1.40;;;31.07;62.74;95315.33;618301;226;31921;-72
2022/08/25 11:22:55;;;;;;;2.85;2.55;;;29.30;1.40;;;31.79;59.97;95312.52;647713;216;31554;-71
2022/08/25 11:25:42;;;;;;;4.50;2.60;;;30.00;1.40;;;32.91;61.93;95304.73;646983;216;32310;-72
2022/08/25 11:28:27;;;;;;;3.30;2.30;;;30.90;1.40;;;33.20;56.90;95296.45;647163;216;31797;-71
2022/08/25 11:31:09;;;;;;;2.87;2.58;;;30.00;1.40;;;33.57;55.60;95294.68;646502;216;42885;-71
2022/08/25 11:35:52;;;;;;;3.33;2.78;;;30.30;1.40;;;33.10;57.18;95293.55;645183;216;34808;-73
2022/08/25 11:41:19;;;;;;;2.65;2.45;;;33.00;1.40;;;34.74;53.02;95287.79;645738;216;32354;-71
2022/08/25 11:44:15;;;;;;;3.97;2.60;;;34.00;1.40;;;36.80;49.54;95283.92;647054;212;32397;-71
2022/08/25 11:47:23;;;;;;;3.00;2.30;;;34.30;1.40;;;36.83;49.40;95281.11;646933;216;42293;-71
2022/08/25 11:50:06;;;;;;;3.42;2.30;;;35.10;1.40;;;38.04;45.27;95280.77;645936;216;31572;-72
2022/08/25 11:52:52;;;;;;;2.37;2.17;;;35.50;1.40;;;39.66;43.03;95286.24;645566;215;31605;-72
2022/08/25 11:55:49;;;;;;;2.53;2.33;;;36.50;1.40;;;39.83;44.51;95285.95;646474;216;32261;-72
2022/08/25 11:58:47;;;;;;;2.92;2.70;;;36.80;1.40;;;42.84;40.17;95278.17;646763;212;31602;-70
2022/08/25 12:02:01;;;;;;;3.80;2.50;;;37.00;1.40;;;34.70;44.72;95304.06;646340;216;31634;-71
2022/08/25 12:04:43;;;;;;;2.40;2.20;;;30.30;1.40;;;33.83;50.55;95300.61;645924;216;31539;-71
2022/08/25 12:07:25;;;;;;;4.13;2.27;;;32.40;1.40;;;35.83;46.96;95292.56;646887;216;32114;-72
2022/08/25 12:10:10;;;;;;;2.62;2.12;;;33.90;1.40;;;35.37;46.27;95295.48;647303;212;31651;-71
2022/08/25 12:12:55;;;;;;;2.70;2.40;;;33.60;1.40;;;40.34;40.51;95277.06;646249;216;31967;-72
2022/08/25 12:15:56;;;;;;;3.10;2.25;;;36.10;1.40;;;41.03;38.19;95274.67;642189;216;43773;-72
2022/08/25 12:18:39;;;;;;;3.60;2.30;;;36.10;1.40;;;40.77;39.10;95275.39;647329;216;31534;-72
2022/08/25 12:21:32;;;;;;;2.50;2.30;;;36.60;1.40;;;42.62;37.22;95272.02;645943;216;32918;-70
2022/08/25 12:24:13;;;;;;;2.80;2.60;;;37.60;1.40;;;43.12;37.08;95267.25;647094;216;31507;-70
2022/08/25 12:26:58;;;;;;;5.77;2.73;;;37.70;1.40;;;40.21;36.76;95278.31;645727;216;31569;-70
2022/08/25 12:29:43;;;;;;;3.00;1.97;;;35.20;1.40;;;38.53;40.13;95276.29;618534;226;32117;-71